Time;durP1;ratioP1;P1;durP2;ratioP2;P2;SDS_P1;SDS_P2;PMS_P1;PMS_P2;Temp;Humidity;BMP_temperature;BMP_pressure;BME280_temperature;BME280_humidity;BME280_pressure;Samples;Min_cycle;Max_cycle;Signal;HPM_P1;HPM_P2
2022/04/19 00:00:24;;;;;;;6.37;4.40;;;;;;;;;;4378462;32;20442;-72
2022/04/19 00:02:51;;;;;;;6.80;4.47;;;;;;;;;;4378305;32;20153;-72
2022/04/19 00:05:17;;;;;;;6.70;4.32;;;;;;;;;;4364334;32;20106;-73
2022/04/19 00:07:44;;;;;;;8.77;5.12;;;;;;;;;;4378226;32;20588;-73
2022/04/19 00:10:12;;;;;;;7.57;4.32;;;;;;;;;;4377340;32;20071;-73
2022/04/19 00:12:39;;;;;;;7.30;4.60;;;;;;;;;;4376950;32;20163;-73
2022/04/19 00:15:07;;;;;;;11.15;5.10;;;;;;;;;;4364417;32;20163;-73
2022/04/19 00:17:33;;;;;;;9.43;5.15;;;;;;;;;;4364045;32;20089;-73
2022/04/19 00:20:00;;;;;;;10.38;4.90;;;;;;;;;;4378278;32;20093;-74
2022/04/19 00:22:28;;;;;;;9.50;5.40;;;;;;;;;;4364161;32;20094;-72
2022/04/19 00:24:55;;;;;;;9.05;5.80;;;;;;;;;;4377367;32;20074;-73
2022/04/19 00:27:22;;;;;;;7.75;5.37;;;;;;;;;;4377961;32;20065;-73
2022/04/19 00:29:49;;;;;;;9.75;5.28;;;;;;;;;;4351486;32;20590;-73
2022/04/19 00:32:16;;;;;;;8.65;5.30;;;;;;;;;;4377467;32;20155;-73
2022/04/19 00:34:44;;;;;;;11.77;5.47;;;;;;;;;;4377085;32;20082;-73
2022/04/19 00:37:11;;;;;;;9.73;6.18;;;;;;;;;;4377465;32;20085;-72
2022/04/19 00:39:37;;;;;;;10.90;5.85;;;;;;;;;;4377096;32;20500;-72
2022/04/19 00:42:04;;;;;;;8.48;5.40;;;;;;;;;;4376195;32;20098;-73
2022/04/19 00:44:33;;;;;;;9.30;5.40;;;;;;;;;;4363839;32;20124;-72
2022/04/19 00:47:00;;;;;;;8.82;5.82;;;;;;;;;;4377808;32;20077;-72
2022/04/19 00:49:28;;;;;;;9.15;5.55;;;;;;;;;;4363981;32;20082;-72
2022/04/19 00:51:56;;;;;;;11.38;5.45;;;;;;;;;;4376131;32;20510;-73
2022/04/19 00:54:23;;;;;;;9.80;5.82;;;;;;;;;;4377795;32;20075;-72
2022/04/19 00:56:50;;;;;;;9.10;5.82;;;;;;;;;;4376305;32;20089;-72
2022/04/19 00:59:20;;;;;;;10.43;5.47;;;;;;;;;;4376846;32;20078;-72
2022/04/19 01:01:46;;;;;;;9.77;6.07;;;;;;;;;;4363298;32;20468;-73
2022/04/19 01:04:13;;;;;;;10.38;5.60;;;;;;;;;;4363760;32;20141;-73
2022/04/19 01:06:40;;;;;;;12.10;6.25;;;;;;;;;;4363500;32;20070;-72
2022/04/19 01:09:06;;;;;;;10.45;6.07;;;;;;;;;;4363360;32;20085;-74
2022/04/19 01:14:20;;;;;;;16.17;7.70;;;;;;;;;;4377394;32;20086;-73
2022/04/19 01:16:47;;;;;;;16.45;7.78;;;;;;;;;;4363832;32;20087;-73
2022/04/19 01:19:17;;;;;;;13.10;6.37;;;;;;;;;;4363360;32;20165;-73
2022/04/19 01:21:54;;;;;;;14.52;7.12;;;;;;;;;;4377176;32;20088;-72
2022/04/19 01:24:22;;;;;;;17.77;7.50;;;;;;;;;;4375782;32;20075;-73
2022/04/19 01:26:50;;;;;;;17.02;7.70;;;;;;;;;;4363124;32;20078;-74
2022/04/19 01:29:16;;;;;;;19.48;7.68;;;;;;;;;;4375580;32;20081;-73
2022/04/19 01:31:45;;;;;;;13.65;7.32;;;;;;;;;;4363043;32;20058;-73
2022/04/19 01:34:12;;;;;;;20.05;7.18;;;;;;;;;;4363242;32;20101;-73
2022/04/19 01:36:39;;;;;;;18.67;7.68;;;;;;;;;;4375168;32;20093;-73
2022/04/19 01:39:07;;;;;;;18.58;8.90;;;;;;;;;;4376081;32;20082;-73
2022/04/19 01:41:35;;;;;;;16.27;8.25;;;;;;;;;;4376658;32;20091;-72
2022/04/19 01:44:01;;;;;;;15.30;7.75;;;;;;;;;;4366021;32;20082;-73
2022/04/19 01:46:28;;;;;;;13.85;8.23;;;;;;;;;;4354200;32;20085;-73
2022/04/19 01:48:55;;;;;;;13.60;7.43;;;;;;;;;;4362652;32;20521;-72
2022/04/19 01:51:22;;;;;;;14.45;7.82;;;;;;;;;;4376809;32;20074;-73
2022/04/19 01:53:49;;;;;;;13.60;7.62;;;;;;;;;;4376712;32;20078;-73
2022/04/19 01:56:16;;;;;;;13.82;8.02;;;;;;;;;;4376417;32;20081;-73
2022/04/19 01:58:42;;;;;;;13.32;7.53;;;;;;;;;;4363168;32;20077;-74
2022/04/19 02:01:09;;;;;;;12.82;7.12;;;;;;;;;;4375085;32;20551;-73
2022/04/19 02:03:36;;;;;;;14.20;7.32;;;;;;;;;;4362737;32;20141;-73
2022/04/19 02:06:08;;;;;;;12.50;7.10;;;;;;;;;;4362948;32;20083;-73
2022/04/19 02:08:35;;;;;;;17.60;8.07;;;;;;;;;;4376209;32;20078;-73
2022/04/19 02:11:01;;;;;;;15.93;7.25;;;;;;;;;;4362951;32;20089;-73
2022/04/19 02:13:28;;;;;;;13.90;7.70;;;;;;;;;;4362559;32;20082;-74
2022/04/19 02:15:55;;;;;;;12.48;7.30;;;;;;;;;;4376448;32;20083;-73
2022/04/19 02:18:21;;;;;;;16.23;8.40;;;;;;;;;;4362757;32;20176;-72
2022/04/19 02:20:48;;;;;;;17.02;7.37;;;;;;;;;;4376354;32;20172;-72
2022/04/19 02:23:14;;;;;;;15.38;7.47;;;;;;;;;;4376182;32;20084;-73
2022/04/19 02:25:42;;;;;;;16.30;8.15;;;;;;;;;;4376685;32;20070;-73
2022/04/19 02:28:10;;;;;;;16.83;8.48;;;;;;;;;;4376545;32;20084;-72
2022/04/19 02:30:37;;;;;;;15.20;8.68;;;;;;;;;;4374803;32;20085;-73
2022/04/19 02:33:03;;;;;;;14.77;8.82;;;;;;;;;;4374599;32;20465;-73
2022/04/19 02:35:31;;;;;;;17.35;9.82;;;;;;;;;;4376446;32;20097;-73
2022/04/19 02:37:59;;;;;;;17.02;9.90;;;;;;;;;;4362170;32;20149;-73
2022/04/19 02:40:26;;;;;;;16.73;9.38;;;;;;;;;;4374659;32;20145;-73
2022/04/19 02:42:54;;;;;;;17.10;9.70;;;;;;;;;;4374881;32;20088;-72
2022/04/19 02:45:22;;;;;;;14.77;9.27;;;;;;;;;;4362399;32;20505;-72
2022/04/19 02:47:51;;;;;;;16.52;9.23;;;;;;;;;;4375515;32;20487;-73
2022/04/19 02:50:18;;;;;;;17.12;9.70;;;;;;;;;;4374480;32;20593;-72
2022/04/19 02:52:45;;;;;;;15.60;8.90;;;;;;;;;;4376324;32;20456;-72
2022/04/19 02:55:11;;;;;;;15.88;8.55;;;;;;;;;;4362341;32;20141;-73
2022/04/19 02:57:38;;;;;;;16.83;7.97;;;;;;;;;;4376101;32;20149;-73
2022/04/19 03:00:05;;;;;;;15.90;8.13;;;;;;;;;;4362067;32;20097;-72
2022/04/19 03:02:33;;;;;;;15.70;8.38;;;;;;;;;;4374802;32;20070;-73
2022/04/19 03:05:00;;;;;;;12.98;7.62;;;;;;;;;;4362233;32;20101;-73
2022/04/19 03:07:26;;;;;;;14.30;8.43;;;;;;;;;;4362295;32;20089;-73
2022/04/19 03:09:53;;;;;;;17.23;8.68;;;;;;;;;;4362036;32;20543;-72
2022/04/19 03:12:20;;;;;;;13.60;7.85;;;;;;;;;;4375196;32;20170;-72
2022/04/19 03:14:46;;;;;;;12.43;7.28;;;;;;;;;;4374796;32;20077;-73
2022/04/19 03:17:13;;;;;;;11.55;7.50;;;;;;;;;;4376008;32;20084;-73
2022/04/19 03:19:40;;;;;;;14.60;8.32;;;;;;;;;;4362498;32;20161;-73
2022/04/19 03:22:06;;;;;;;14.05;7.97;;;;;;;;;;4361983;32;20078;-73
2022/04/19 03:30:04;;;;;;;14.57;7.32;;;;;;;;;;4379697;32;20078;-72
2022/04/19 03:32:32;;;;;;;15.52;6.80;;;;;;;;;;4378751;32;20078;-72
2022/04/19 03:34:58;;;;;;;12.77;7.95;;;;;;;;;;4378406;32;20149;-72
2022/04/19 03:37:25;;;;;;;11.88;6.50;;;;;;;;;;4378359;32;20158;-72
2022/04/19 03:39:52;;;;;;;11.68;7.12;;;;;;;;;;4365130;32;20082;-72
2022/04/19 03:42:18;;;;;;;14.55;7.55;;;;;;;;;;4378508;32;20086;-73
2022/04/19 03:44:45;;;;;;;15.32;8.00;;;;;;;;;;4378143;32;20162;-72
2022/04/19 03:47:12;;;;;;;18.20;8.88;;;;;;;;;;4364731;32;20583;-73
2022/04/19 03:49:39;;;;;;;20.40;8.73;;;;;;;;;;4364663;32;20090;-72
